createdAt,value
2023-02-14T00:03:43.614Z,38.17
2023-02-14T00:08:45.549Z,34.13
2023-02-14T00:14:09.198Z,35.25
2023-02-14T00:19:15.347Z,39.22
2023-02-14T00:24:24.909Z,34.88
2023-02-14T00:29:31.531Z,35.97
2023-02-14T00:34:40.375Z,39.20
2023-02-14T00:39:50.381Z,36.45
2023-02-14T00:44:51.938Z,38.08
2023-02-14T00:49:55.095Z,40.08
2023-02-14T00:55:05.350Z,40.38
2023-02-14T01:00:08.583Z,40.55
2023-02-14T01:05:10.242Z,40.50
2023-02-14T01:10:12.263Z,37.38
2023-02-14T01:15:14.843Z,41.28
2023-02-14T01:20:16.505Z,43.00
2023-02-14T01:25:18.452Z,45.05
2023-02-14T01:30:21.726Z,40.38
2023-02-14T01:35:25.799Z,39.75
2023-02-14T01:40:34.920Z,37.60
2023-02-14T01:45:40.298Z,38.72
2023-02-14T01:50:46.573Z,34.00
2023-02-14T01:56:05.008Z,36.90
2023-02-14T02:01:06.783Z,42.67
2023-02-14T02:06:13.944Z,39.10
2023-02-14T02:11:15.461Z,38.47
2023-02-14T02:16:23.107Z,39.85
2023-02-14T02:21:48.300Z,39.47
2023-02-14T02:27:30.626Z,40.35
2023-02-14T02:33:07.392Z,36.10
2023-02-14T02:38:45.021Z,39.45
2023-02-14T02:43:54.079Z,38.20
2023-02-14T02:49:43.899Z,42.42
2023-02-14T02:54:55.132Z,37.92
2023-02-14T02:59:59.931Z,36.83
2023-02-14T03:05:05.440Z,39.85
2023-02-14T03:10:38.137Z,40.33
2023-02-14T03:15:54.011Z,35.20
2023-02-14T03:21:26.947Z,38.75
2023-02-14T03:26:39.653Z,33.85
2023-02-14T03:32:11.467Z,36.65
2023-02-14T03:37:21.309Z,36.78
2023-02-14T03:42:28.476Z,34.63
2023-02-14T03:47:36.338Z,41.78
2023-02-14T03:52:49.769Z,31.67
2023-02-14T03:58:18.645Z,34.78
2023-02-14T04:03:23.594Z,34.78
2023-02-14T04:08:33.565Z,38.95
2023-02-14T04:13:37.176Z,36.30
2023-02-14T04:18:57.416Z,35.67
2023-02-14T04:24:06.530Z,39.40
2023-02-14T04:29:10.429Z,37.08
2023-02-14T04:34:11.944Z,37.55
2023-02-14T04:39:25.495Z,41.55
2023-02-14T04:44:27.105Z,45.55
2023-02-14T04:49:28.626Z,44.13
2023-02-14T04:54:38.078Z,41.72
2023-02-14T04:59:42.348Z,35.13
2023-02-14T05:04:44.730Z,35.30
2023-02-14T05:09:49.056Z,37.25
2023-02-14T05:14:58.670Z,36.60
2023-02-14T05:20:00.160Z,40.17
2023-02-14T05:25:01.921Z,37.13
2023-02-14T05:30:03.817Z,42.30
2023-02-14T05:35:08.229Z,43.80
2023-02-14T05:40:13.282Z,40.80
2023-02-14T05:45:15.093Z,39.53
2023-02-14T05:50:17.667Z,37.78
2023-02-14T05:55:22.108Z,42.30
2023-02-14T06:00:27.236Z,38.75
2023-02-14T06:05:28.763Z,36.28
2023-02-14T06:10:32.601Z,37.90
2023-02-14T06:15:41.492Z,42.35
2023-02-14T06:20:48.481Z,37.85
2023-02-14T06:25:50.024Z,40.15
2023-02-14T06:30:51.765Z,37.25
2023-02-14T06:35:59.526Z,34.53
2023-02-14T06:41:10.614Z,30.75
2023-02-14T06:46:16.434Z,34.75
2023-02-14T06:51:18.084Z,35.83
2023-02-14T06:56:19.644Z,31.20
2023-02-14T07:01:21.186Z,33.50
2023-02-14T07:06:25.411Z,41.78
2023-02-14T07:11:29.555Z,41.00
2023-02-14T07:16:36.462Z,39.58
2023-02-14T07:21:37.963Z,42.20
2023-02-14T07:26:39.431Z,41.92
2023-02-14T07:31:44.103Z,41.85
2023-02-14T07:36:45.955Z,40.03
2023-02-14T07:41:49.838Z,37.03
2023-02-14T07:46:58.945Z,40.53
2023-02-14T07:52:04.655Z,43.17
2023-02-14T07:57:06.276Z,37.72
2023-02-14T08:02:12.548Z,36.22
2023-02-14T08:07:19.406Z,35.80
2023-02-14T08:12:42.022Z,37.38
2023-02-14T08:17:46.044Z,37.67
2023-02-14T08:22:47.667Z,43.05
2023-02-14T08:27:51.667Z,45.42
2023-02-14T08:32:53.649Z,38.15
2023-02-14T08:37:55.231Z,40.50
2023-02-14T08:43:01.635Z,38.10
2023-02-14T08:48:12.438Z,37.97
2023-02-14T08:53:16.377Z,40.22
2023-02-14T08:58:20.486Z,47.30
2023-02-14T09:03:26.393Z,40.17
2023-02-14T09:08:38.872Z,43.38
2023-02-14T09:13:41.977Z,39.95
2023-02-14T09:18:44.502Z,38.97
2023-02-14T09:23:48.621Z,37.58
2023-02-14T09:28:52.606Z,36.85
2023-02-14T09:33:56.440Z,32.60
2023-02-14T09:39:01.025Z,33.47
2023-02-14T09:44:19.205Z,30.25
2023-02-14T09:54:31.540Z,44.38
2023-02-14T09:59:42.574Z,34.13
2023-02-14T10:05:14.501Z,34.33
2023-02-14T10:10:45.700Z,28.58
2023-02-14T10:16:00.152Z,31.40
2023-02-14T10:21:07.940Z,27.70
2023-02-14T10:26:16.062Z,27.77
2023-02-14T10:31:43.200Z,29.02
2023-02-14T10:37:03.076Z,31.25
2023-02-14T10:42:19.060Z,27.88
2023-02-14T10:47:34.302Z,25.75
2023-02-14T10:52:51.664Z,26.17
2023-02-14T10:57:56.437Z,29.77
2023-02-14T11:03:07.260Z,23.23
2023-02-14T11:08:22.140Z,24.75
2023-02-14T11:13:43.138Z,27.15
2023-02-14T11:19:12.093Z,26.38
2023-02-14T11:24:19.442Z,28.48
2023-02-14T11:29:27.911Z,28.03
2023-02-14T11:34:40.057Z,23.58
2023-02-14T11:39:43.185Z,29.20
2023-02-14T11:44:56.501Z,26.95
2023-02-14T11:50:01.020Z,27.48
2023-02-14T11:55:06.069Z,24.75
2023-02-14T12:00:31.226Z,25.40
2023-02-14T12:05:46.864Z,25.63
2023-02-14T12:11:05.248Z,27.73
2023-02-14T12:16:23.971Z,27.77
2023-02-14T12:21:50.760Z,26.35
2023-02-14T12:27:23.355Z,22.95
2023-02-14T12:32:29.948Z,20.92
2023-02-14T12:37:40.844Z,25.17
2023-02-14T12:43:12.265Z,22.52
2023-02-14T12:48:19.891Z,18.80
2023-02-14T12:53:37.452Z,18.98
2023-02-14T12:58:50.642Z,21.00
2023-02-14T13:04:19.741Z,21.33
2023-02-14T13:09:27.658Z,24.55
2023-02-14T13:14:53.748Z,23.83
2023-02-14T13:25:36.045Z,25.55
2023-02-14T13:30:43.027Z,23.60
2023-02-14T13:35:58.257Z,23.02
2023-02-14T13:41:05.117Z,23.38
2023-02-14T13:46:09.151Z,21.92
2023-02-14T13:51:13.643Z,22.27
2023-02-14T13:56:16.400Z,24.25
2023-02-14T14:01:36.193Z,21.45
2023-02-14T14:07:04.788Z,20.88
2023-02-14T14:12:37.230Z,23.88
2023-02-14T14:17:47.524Z,22.33
2023-02-14T14:22:56.766Z,22.20
2023-02-14T14:27:59.966Z,20.30
2023-02-14T14:33:31.902Z,24.98
2023-02-14T14:38:46.824Z,22.45
2023-02-14T14:43:51.073Z,21.70
2023-02-14T14:48:55.161Z,21.88
2023-02-14T14:54:18.286Z,19.73
2023-02-14T14:59:42.344Z,22.90
2023-02-14T15:04:46.164Z,21.60
2023-02-14T15:09:49.051Z,19.48
2023-02-14T15:15:01.939Z,21.42
2023-02-14T15:20:22.248Z,24.80
2023-02-14T15:25:33.024Z,22.35
2023-02-14T15:30:41.487Z,25.35
2023-02-14T15:35:46.578Z,24.15
2023-02-14T15:40:52.775Z,25.60
2023-02-14T15:46:03.004Z,26.33
2023-02-14T15:51:08.763Z,24.10
2023-02-14T15:56:33.668Z,25.90
2023-02-14T16:01:37.574Z,24.05
2023-02-14T16:06:48.070Z,22.15
2023-02-14T16:11:54.662Z,26.17
2023-02-14T16:17:02.417Z,23.95
2023-02-14T16:22:09.133Z,28.10
2023-02-14T16:27:13.704Z,25.80
2023-02-14T16:32:26.436Z,30.88
2023-02-14T16:37:31.549Z,26.02
2023-02-14T16:42:33.175Z,24.33
2023-02-14T16:47:34.709Z,27.77
2023-02-14T16:52:36.436Z,24.60
2023-02-14T16:57:42.965Z,25.95
2023-02-14T17:02:45.311Z,26.90
2023-02-14T17:07:47.369Z,24.52
2023-02-14T17:12:53.870Z,28.70
2023-02-14T17:18:02.623Z,22.33
2023-02-14T17:23:07.687Z,27.20
2023-02-14T17:28:10.873Z,29.73
2023-02-14T17:33:14.455Z,24.38
2023-02-14T17:38:16.013Z,28.63
2023-02-14T17:43:24.025Z,29.38
2023-02-14T17:48:27.924Z,34.65
2023-02-14T17:53:29.398Z,32.60
2023-02-14T17:58:33.874Z,35.05
2023-02-14T18:03:42.255Z,30.20
2023-02-14T18:08:48.213Z,36.92
2023-02-14T18:14:03.058Z,30.67
2023-02-14T18:19:07.211Z,32.50
2023-02-14T18:24:12.389Z,40.00
2023-02-14T18:29:16.111Z,27.27
2023-02-14T18:34:20.131Z,32.13
2023-02-14T18:39:26.424Z,28.75
2023-02-14T18:44:29.018Z,28.83
2023-02-14T18:49:33.168Z,29.77
2023-02-14T18:54:36.962Z,33.53
2023-02-14T18:59:43.519Z,33.70
2023-02-14T19:04:50.040Z,57.78
2023-02-14T19:09:53.940Z,37.97
2023-02-14T19:14:57.730Z,26.17
2023-02-14T19:20:00.923Z,33.20
2023-02-14T19:25:05.103Z,27.55
2023-02-14T19:30:08.433Z,29.83
2023-02-14T19:35:10.112Z,27.38
2023-02-14T19:40:15.103Z,29.48
2023-02-14T19:45:18.979Z,27.88
2023-02-14T19:50:23.534Z,26.48
2023-02-14T19:55:27.919Z,25.10
2023-02-14T20:00:31.893Z,24.45
2023-02-14T20:05:36.762Z,21.20
2023-02-14T20:10:40.598Z,21.05
2023-02-14T20:15:42.251Z,24.20
2023-02-14T20:21:02.819Z,22.08
2023-02-14T20:26:11.731Z,20.17
2023-02-14T20:31:15.457Z,16.80
2023-02-14T20:36:17.600Z,18.42
2023-02-14T20:41:22.655Z,21.83
2023-02-14T20:46:26.666Z,19.48
2023-02-14T20:51:28.766Z,21.15
2023-02-14T20:56:30.857Z,17.52
2023-02-14T21:01:32.694Z,20.20
2023-02-14T21:06:35.611Z,19.63
2023-02-14T21:11:37.176Z,22.77
2023-02-14T21:16:38.763Z,18.15
2023-02-14T21:21:40.802Z,19.60
2023-02-14T21:26:43.139Z,17.98
2023-02-14T21:31:44.938Z,18.52
2023-02-14T21:36:46.595Z,19.58
2023-02-14T21:41:48.270Z,22.17
2023-02-14T21:46:49.839Z,19.30
2023-02-14T21:51:51.548Z,23.88
2023-02-14T21:56:53.250Z,25.08
2023-02-14T22:01:54.875Z,19.30
2023-02-14T22:06:57.087Z,19.63
2023-02-14T22:11:58.616Z,18.27
2023-02-14T22:17:00.189Z,18.88
2023-02-14T22:22:02.014Z,16.35
2023-02-14T22:27:03.726Z,19.98
2023-02-14T22:32:05.459Z,18.13
2023-02-14T22:37:07.296Z,19.85
2023-02-14T22:42:09.960Z,17.90
2023-02-14T22:47:11.530Z,16.27
2023-02-14T22:52:13.066Z,17.08
2023-02-14T22:57:14.629Z,14.90
2023-02-14T23:02:16.138Z,16.40
2023-02-14T23:07:17.820Z,14.57
2023-02-14T23:12:37.964Z,14.90
2023-02-14T23:17:58.504Z,17.13
2023-02-14T23:23:00.054Z,15.80
2023-02-14T23:28:01.793Z,15.73
2023-02-14T23:33:03.578Z,15.63
2023-02-14T23:38:05.220Z,17.73
2023-02-14T23:43:06.748Z,16.63
2023-02-14T23:48:08.311Z,17.60
2023-02-14T23:53:09.906Z,19.67
2023-02-14T23:58:11.525Z,19.90
